createdAt,value
2022-08-17T00:02:26.793Z,57.90
2022-08-17T00:05:31.557Z,57.80
2022-08-17T00:08:43.986Z,58.21
2022-08-17T00:12:35.510Z,58.09
2022-08-17T00:15:15.163Z,58.15
2022-08-17T00:19:06.994Z,57.81
2022-08-17T00:22:29.462Z,57.67
2022-08-17T00:25:15.005Z,57.68
2022-08-17T00:28:18.174Z,57.34
2022-08-17T00:31:24.792Z,57.67
2022-08-17T00:34:28.847Z,57.83
2022-08-17T00:37:35.174Z,58.12
2022-08-17T00:40:45.517Z,58.90
2022-08-17T00:43:52.108Z,59.13
2022-08-17T00:46:56.260Z,59.33
2022-08-17T00:49:59.286Z,59.43
2022-08-17T00:53:04.690Z,59.50
2022-08-17T00:56:12.959Z,59.70
2022-08-17T00:59:19.287Z,59.22
2022-08-17T01:02:24.101Z,59.64
2022-08-17T01:05:31.643Z,59.89
2022-08-17T01:08:36.472Z,60.53
2022-08-17T01:11:40.787Z,61.00
2022-08-17T01:14:44.130Z,61.14
2022-08-17T01:17:48.154Z,61.39
2022-08-17T01:20:53.989Z,61.26
2022-08-17T01:23:57.233Z,61.51
2022-08-17T01:27:00.612Z,61.93
2022-08-17T01:30:57.329Z,62.15
2022-08-17T01:33:31.015Z,61.76
2022-08-17T01:36:33.783Z,61.89
2022-08-17T01:39:42.235Z,61.86
2022-08-17T01:42:50.644Z,62.07
2022-08-17T01:46:02.507Z,62.73
2022-08-17T01:49:08.766Z,62.82
2022-08-17T01:52:12.550Z,63.24
2022-08-17T01:55:18.075Z,63.33
2022-08-17T01:58:21.505Z,63.25
2022-08-17T02:01:30.840Z,63.43
2022-08-17T02:04:35.089Z,63.54
2022-08-17T02:07:59.442Z,63.76
2022-08-17T02:11:12.172Z,63.70
2022-08-17T02:14:15.202Z,64.04
2022-08-17T02:17:18.250Z,64.10
2022-08-17T02:20:41.764Z,64.21
2022-08-17T02:23:47.566Z,64.43
2022-08-17T02:26:50.513Z,64.56
2022-08-17T02:29:53.731Z,64.41
2022-08-17T02:32:56.524Z,64.69
2022-08-17T02:35:59.910Z,65.00
2022-08-17T02:39:07.077Z,65.23
2022-08-17T02:42:10.211Z,65.36
2022-08-17T02:45:19.360Z,65.46
2022-08-17T02:48:30.423Z,65.96
2022-08-17T02:51:35.392Z,65.76
2022-08-17T02:54:42.291Z,65.98
2022-08-17T02:57:45.595Z,66.27
2022-08-17T03:00:49.066Z,66.31
2022-08-17T03:03:51.847Z,66.32
2022-08-17T03:06:54.904Z,66.97
2022-08-17T03:09:57.691Z,66.93
2022-08-17T03:13:01.410Z,66.62
2022-08-17T03:16:04.330Z,66.59
2022-08-17T03:19:07.506Z,66.55
2022-08-17T03:22:36.518Z,66.48
2022-08-17T03:25:46.090Z,66.77
2022-08-17T03:28:49.059Z,66.87
2022-08-17T03:31:52.506Z,67.01
2022-08-17T03:34:59.831Z,67.12
2022-08-17T03:38:04.631Z,67.10
2022-08-17T03:41:09.037Z,67.03
2022-08-17T03:44:12.102Z,66.84
2022-08-17T03:47:33.853Z,67.06
2022-08-17T03:50:55.849Z,67.08
2022-08-17T03:54:18.908Z,67.13
2022-08-17T03:57:22.569Z,67.31
2022-08-17T04:00:25.393Z,67.32
2022-08-17T04:03:28.868Z,67.53
2022-08-17T04:06:31.590Z,67.19
2022-08-17T04:09:36.665Z,66.99
2022-08-17T04:12:43.375Z,67.29
2022-08-17T04:15:49.324Z,67.10
2022-08-17T04:18:52.649Z,67.34
2022-08-17T04:21:58.037Z,67.70
2022-08-17T04:25:18.117Z,67.74
2022-08-17T04:28:21.189Z,67.96
2022-08-17T04:31:24.089Z,68.10
2022-08-17T04:34:29.142Z,68.37
2022-08-17T04:37:31.922Z,68.61
2022-08-17T04:40:53.331Z,68.50
2022-08-17T04:43:58.565Z,68.65
2022-08-17T04:47:01.727Z,68.30
2022-08-17T04:50:04.958Z,67.76
2022-08-17T04:53:08.012Z,67.91
2022-08-17T04:56:16.603Z,67.67
2022-08-17T04:59:21.698Z,68.91
2022-08-17T05:02:24.523Z,68.32
2022-08-17T05:05:34.070Z,68.56
2022-08-17T05:08:40.015Z,68.01
2022-08-17T05:11:44.954Z,68.42
2022-08-17T05:14:48.012Z,67.39
2022-08-17T05:17:51.167Z,67.84
2022-08-17T05:20:54.706Z,67.36
2022-08-17T05:23:58.770Z,66.48
2022-08-17T05:27:06.702Z,62.94
2022-08-17T05:30:10.242Z,61.38
2022-08-17T05:33:26.469Z,60.50
2022-08-17T05:36:43.660Z,61.41
2022-08-17T05:39:47.335Z,60.18
2022-08-17T05:42:50.896Z,59.72
2022-08-17T05:46:02.100Z,59.22
2022-08-17T05:49:12.039Z,59.11
2022-08-17T05:52:48.545Z,59.79
2022-08-17T05:56:29.722Z,59.94
2022-08-17T05:59:33.047Z,59.04
2022-08-17T06:02:48.533Z,58.32
2022-08-17T06:06:04.188Z,58.53
2022-08-17T06:09:33.662Z,58.90
2022-08-17T06:13:19.766Z,58.25
2022-08-17T06:16:34.167Z,57.47
2022-08-17T06:19:50.020Z,57.13
2022-08-17T06:22:56.669Z,57.39
2022-08-17T06:26:03.955Z,56.63
2022-08-17T06:29:18.894Z,56.54
2022-08-17T06:32:23.065Z,56.02
2022-08-17T06:35:34.078Z,55.74
2022-08-17T06:39:17.247Z,54.97
2022-08-17T06:42:55.078Z,54.37
2022-08-17T06:46:20.018Z,55.37
2022-08-17T06:49:27.111Z,55.44
2022-08-17T06:52:45.268Z,54.35
2022-08-17T06:56:07.622Z,54.94
2022-08-17T06:59:17.669Z,54.15
2022-08-17T07:02:29.327Z,53.97
2022-08-17T07:05:58.463Z,54.24
2022-08-17T07:09:07.268Z,53.80
2022-08-17T07:12:22.230Z,53.89
2022-08-17T07:15:34.190Z,52.56
2022-08-17T07:18:37.531Z,54.13
2022-08-17T07:22:00.193Z,52.44
2022-08-17T07:25:08.150Z,51.76
2022-08-17T07:28:12.132Z,52.94
2022-08-17T07:31:17.718Z,51.77
2022-08-17T07:34:20.731Z,51.49
2022-08-17T07:37:23.818Z,50.53
2022-08-17T07:40:33.768Z,50.59
2022-08-17T07:43:39.983Z,50.47
2022-08-17T07:47:10.535Z,50.29
2022-08-17T07:50:40.180Z,50.10
2022-08-17T07:53:43.004Z,50.00
2022-08-17T07:57:01.613Z,50.07
2022-08-17T08:00:17.002Z,49.78
2022-08-17T08:03:32.056Z,49.31
2022-08-17T08:06:47.652Z,49.72
2022-08-17T08:10:28.496Z,49.51
2022-08-17T08:13:32.502Z,48.19
2022-08-17T08:16:36.891Z,47.22
2022-08-17T08:19:40.171Z,46.66
2022-08-17T08:22:49.336Z,45.99
2022-08-17T08:26:18.884Z,45.81
2022-08-17T08:29:34.003Z,47.00
2022-08-17T08:32:39.741Z,46.42
2022-08-17T08:35:55.327Z,46.27
2022-08-17T08:39:04.596Z,46.26
2022-08-17T08:42:10.597Z,45.94
2022-08-17T08:45:42.845Z,45.61
2022-08-17T08:48:58.135Z,45.84
2022-08-17T08:52:04.152Z,44.84
2022-08-17T08:55:07.902Z,44.75
2022-08-17T08:58:41.790Z,44.87
2022-08-17T09:01:48.306Z,44.36
2022-08-17T09:05:15.987Z,43.96
2022-08-17T09:08:47.359Z,43.13
2022-08-17T09:12:04.052Z,42.75
2022-08-17T09:15:21.628Z,42.68
2022-08-17T09:19:00.954Z,41.89
2022-08-17T09:21:56.062Z,41.54
2022-08-17T09:25:21.884Z,40.91
2022-08-17T09:28:34.809Z,40.88
2022-08-17T09:31:49.395Z,41.12
2022-08-17T09:34:56.788Z,41.03
2022-08-17T09:38:03.854Z,39.94
2022-08-17T09:41:22.684Z,39.81
2022-08-17T09:44:38.677Z,38.12
2022-08-17T09:47:48.642Z,38.19
2022-08-17T09:51:19.491Z,37.66
2022-08-17T09:54:42.775Z,38.04
2022-08-17T09:58:09.430Z,37.50
2022-08-17T10:01:34.987Z,36.85
2022-08-17T10:04:54.203Z,37.54
2022-08-17T10:08:24.489Z,36.22
2022-08-17T10:12:02.757Z,37.43
2022-08-17T10:15:24.533Z,36.77
2022-08-17T10:27:23.061Z,34.79
2022-08-17T10:51:09.120Z,30.71
2022-08-17T11:23:40.219Z,27.79
2022-08-17T11:43:27.493Z,28.97
2022-08-17T13:09:07.502Z,23.34
2022-08-17T14:06:52.979Z,18.65
2022-08-17T14:10:20.663Z,18.68
2022-08-17T14:55:42.625Z,17.23
2022-08-17T14:59:22.675Z,15.90
2022-08-17T15:02:32.484Z,16.36
2022-08-17T15:05:57.425Z,17.03
2022-08-17T15:37:01.137Z,16.28
2022-08-17T15:51:38.539Z,15.37
2022-08-17T16:03:45.011Z,17.12
2022-08-17T16:07:26.706Z,15.91
2022-08-17T16:15:09.548Z,14.74
2022-08-17T16:26:37.023Z,16.27
2022-08-17T22:26:05.424Z,43.51
2022-08-17T22:29:44.598Z,43.84
2022-08-17T22:32:48.563Z,43.98
2022-08-17T22:36:22.027Z,43.77
2022-08-17T22:39:26.303Z,43.21
2022-08-17T22:42:29.418Z,42.56
2022-08-17T22:45:33.663Z,42.31
2022-08-17T22:48:37.206Z,43.73
2022-08-17T22:51:40.351Z,44.63
2022-08-17T22:55:12.830Z,45.75
2022-08-17T22:58:38.100Z,46.78
2022-08-17T23:01:42.993Z,47.02
2022-08-17T23:05:16.906Z,47.36
2022-08-17T23:08:21.484Z,49.15
2022-08-17T23:11:36.821Z,48.58
2022-08-17T23:14:51.528Z,48.46
2022-08-17T23:17:54.602Z,48.85
2022-08-17T23:20:57.770Z,48.59
2022-08-17T23:24:01.561Z,49.08
2022-08-17T23:27:07.696Z,49.33
2022-08-17T23:30:12.142Z,49.34
2022-08-17T23:33:30.050Z,48.71
2022-08-17T23:36:33.592Z,48.18
2022-08-17T23:39:37.622Z,47.54
2022-08-17T23:42:46.247Z,47.87
2022-08-17T23:45:50.422Z,48.41
2022-08-17T23:48:54.231Z,47.07
2022-08-17T23:52:00.446Z,46.83
2022-08-17T23:55:04.277Z,46.36
2022-08-17T23:58:07.760Z,46.80
